SCCI/PUQ METAR and TAF weather

Enter ICAO airport designator
Station Type Date Time Source
SCCI METAR 2020/09/20 11:00 UTC NOAA

SCCI 201100Z AUTO 24006KT 9999 FEW057/// SCT094/// 04/M01 Q1021


Station Type Date Time Source
SCCI Decoded METAR 2020/09/20 11:00 UTC NOAA

Punta Arenas, Chile (SCCI) 53-00S 070-51W 33M
Sep 20, 2020 - 07:00 AM EDT / 2020.09.20 1100 UTC
Wind: from the WSW (240 degrees) at 7 MPH (6 KT):0
Visibility: greater than 7 mile(s):0
Sky conditions: partly cloudy
Temperature: 39 F (4 C)
Dew Point: 30 F (-1 C)
Relative Humidity: 69%
Pressure (altimeter): 30.15 in. Hg (1021 hPa)
ob: SCCI 201100Z AUTO 24006KT 9999 FEW057/// SCT094/// 04/M01 Q1021
cycle: 11

Station Type Date Time Source
SCCI TAF 2020/09/20 12:03 UTC NOAA

TAF SCCI 201014Z 2012/2112 29010KT 9999 FEW045 TN03/2012Z TX09/2019Z
TEMPO 2104/2112 VRB04KT FEW010

Example: see airport list